Latest Coastal Weather Observations for Cape Grim

IDV60701

Issued at 2:05 pm EDT Friday 28 November 2014 (issued every 10 minutes, with the page automatically refreshed every 10 minutes)

About coastal observations | Map of coastal stations | Coastal observations for VIC | Marine services | Other Formats
Station Details ID: 091331 Name: CAPE GRIM Lat: -40.68 Lon: 144.69 Height: 86.0 m
Data from the previous 72 hours. | See also: Recent months at Cape Grim
Date/Time
EDT
Temp

°C
Wind Pressure Rain
since 9am
mm
Weather Cloud Vis
km
Sea
Height
m
Swell
Dir
 
Speed
knots
Gust
knots
hPa Trend Height
m
Period
s
Dir
28/02:00pm 13.5 SW 20 28 1021.7 - 0.0 - - - - - - -
28/01:52pm 13.5 SSW 18 28 1021.8 - 0.0 - - - - - - -
28/01:30pm 13.6 SW 19 27 1022.1 - 0.0 - - - - - - -
28/01:00pm 13.7 SW 20 26 1022.2 - 0.0 - - - - - - -
28/12:30pm 13.4 SW 20 27 1022.5 - 0.0 - - - - - - -
28/12:00pm 13.1 SW 19 25 1022.7 - 0.0 - - - - - - -
28/11:30am 13.1 SW 17 23 1022.8 - 0.0 - - - - - - -
28/11:00am 13.3 SW 15 22 1022.9 - 0.0 - - - - - - -
28/10:30am 13.0 SW 16 23 1023.1 - 0.0 - - - - - - -
28/10:00am 12.9 SSW 13 20 1023.2 - 0.0 - - - - - - -
28/09:30am 12.8 SSW 15 20 1023.5 - 0.0 - - - - - - -
28/09:00am 12.4 SSW 17 23 1023.7 - 0.0 - - - - - - -
28/08:30am 11.8 SSW 16 26 1023.6 - 0.0 - - - - - - -
28/08:28am 11.6 SSW 16 26 1023.6 - 0.0 - - - - - - -
28/08:00am 11.6 S 12 15 1023.5 - 0.0 - - - - - - -
28/07:30am 11.0 S 14 19 1023.3 - 0.0 - - - - - - -
28/07:00am 10.7 S 14 19 1023.2 - 0.0 - - - - - - -
28/06:30am 10.0 S 17 26 1023.1 - 0.0 - - - - - - -
28/06:00am 9.9 S 17 24 1023.0 - 0.0 - - - - - - -
28/05:30am 9.8 S 17 25 1022.8 - 0.0 - - - - - - -
28/05:00am 9.9 S 17 23 1022.7 - 0.0 - - - - - - -
28/04:30am 9.9 S 18 23 1022.6 - 0.0 - - - - - - -
28/04:00am 9.4 S 15 20 1022.5 - 0.0 - - - - - - -
28/03:30am 9.4 S 15 20 1022.7 - 0.0 - - - - - - -
28/03:00am 9.5 S 13 19 1022.9 - 0.0 - - - - - - -
28/02:30am 9.7 S 14 17 1023.1 - 0.0 - - - - - - -
28/02:00am 10.2 S 16 21 1023.1 - 0.0 - - - - - - -
28/01:30am 10.4 S 15 24 1023.1 - 0.0 - - - - - - -
28/01:00am 10.3 S 16 21 1023.1 - 0.0 - - - - - - -
28/12:30am 10.7 S 19 26 1023.4 - 0.0 - - - - - - -
28/12:00am 10.7 SSW 22 31 1023.6 - 0.0 - - - - - - -
 
Date/Time
EDT
Temp

°C
Wind Pressure Rain
since 9am
mm
Weather Cloud Vis
km
Sea
Height
m
Swell
Dir
 
Speed
knots
Gust
knots
hPa Trend Height
m
Period
s
Dir
27/11:30pm 10.9 SSW 21 29 1023.7 - 0.0 - - - - - - -
27/11:00pm 11.1 SSW 20 27 1024.0 - 0.0 - - - - - - -
27/10:30pm 11.0 SSW 21 27 1023.9 - 0.0 - - - - - - -
27/10:00pm 11.1 SSW 19 24 1024.0 - 0.0 - - - - - - -
27/09:30pm 11.2 SSW 19 26 1023.9 - 0.0 - - - - - - -
27/09:00pm 11.3 SSW 19 26 1024.1 - 0.0 - - - - - - -
27/08:30pm 11.4 SSW 19 25 1024.1 - 0.0 - - - - - - -
27/08:00pm 11.9 SSW 20 27 1024.1 - 0.0 - - - - - - -
27/07:30pm 12.0 SSW 21 30 1023.8 - 0.0 - - - - - - -
27/07:21pm 12.2 SSW 21 31 1023.9 - 0.0 - - - - - - -
27/07:00pm 12.5 SSW 20 29 1023.7 - 0.0 - - - - - - -
27/06:30pm 12.7 SW 19 27 1023.8 - 0.0 - - - - - - -
27/06:00pm 12.7 SW 19 25 1023.9 - 0.0 - - - - - - -
27/05:30pm 13.0 SSW 21 29 1023.9 - 0.0 - - - - - - -
27/05:17pm 12.9 SSW 21 32 1024.0 - 0.0 - - - - - - -
27/05:00pm 13.1 SSW 20 27 1024.1 - 0.0 - - - - - - -
27/04:30pm 13.2 SSW 20 29 1024.4 - 0.0 - - - - - - -
27/04:00pm 13.4 SSW 22 29 1024.4 - 0.0 - - - - - - -
27/03:44pm 13.3 SSW 20 30 1024.5 - 0.0 - - - - - - -
27/03:30pm 13.4 SSW 20 27 1024.8 - 0.0 - - - - - - -
27/03:01pm 13.3 SW 20 30 1025.2 - 0.0 - - - - - - -
27/03:00pm 13.4 SW 20 27 1025.2 - 0.0 - - - - - - -
27/02:37pm 13.4 SW 20 30 1025.3 - 0.0 - - - - - - -
27/02:30pm 13.2 SW 19 27 1025.3 - 0.0 - - - - - - -
27/02:06pm 13.2 SSW 19 29 1025.3 - 0.0 - - - - - - -
27/02:00pm 13.4 SSW 19 28 1025.2 - 0.0 - - - - - - -
27/01:30pm 13.2 SSW 19 28 1025.4 - 0.0 - - - - - - -
27/01:06pm 13.5 SW 21 31 1025.5 - 0.0 - - - - - - -
27/01:00pm 12.7 SW 24 31 1025.6 - 0.0 - - - - - - -
27/12:30pm 13.1 SW 20 29 1025.6 - 0.0 - - - - - - -
27/12:00pm 13.1 SW 19 26 1025.5 - 0.0 - - - - - - -
27/11:50am 13.0 SW 19 29 1025.6 - 0.0 - - - - - - -
27/11:30am 13.2 SSW 19 26 1025.6 - 0.0 - - - - - - -
27/11:00am 12.9 SSW 19 29 1025.6 - 0.0 - Partly cloudy - - - - -
27/10:44am 12.7 SW 20 31 1025.7 - 0.0 - - - - - - -
27/10:30am 12.8 SW 19 26 1025.7 - 0.0 - Partly cloudy - - - - -
27/10:00am 13.0 SSW 18 26 1025.8 - 0.0 - Partly cloudy - - - - -
27/09:30am 12.7 SSW 19 26 1025.9 - 0.0 - Cloudy - - - - -
27/09:00am 11.8 SW 20 26 1026.1 - 0.0 - Mostly cloudy - - - - -
27/08:30am 12.0 SSW 16 22 1025.9 - 0.0 - Cloudy - - - - -
27/08:00am 11.5 SSW 15 23 1025.7 - 0.0 - Partly cloudy - - - - -
27/07:30am 11.3 SSW 16 22 1025.4 - 0.0 - Cloudy - - - - -
27/07:00am 11.1 SSW 15 25 1025.1 - 0.0 - Partly cloudy - - - - -
27/06:59am 11.1 SSW 15 25 1025.1 - 0.0 - Partly cloudy - - - - -
27/06:30am 10.8 SSW 14 21 1024.9 - 0.0 - Partly cloudy - - - - -
27/06:00am 10.4 SSW 16 22 1024.4 - 0.0 - Partly cloudy - - - - -
27/05:30am 10.3 SSW 17 22 1024.3 - 0.0 - Partly cloudy - - - - -
27/05:07am 10.9 S 16 27 1024.0 - 0.0 - Cloudy - - - - -
27/05:00am 10.9 SSW 17 22 1023.9 - 0.0 - Cloudy - - - - -
27/04:49am 10.9 S 16 26 1024.0 - 0.0 - Cloudy - - - - -
27/04:30am 11.1 SSW 17 23 1023.9 - 0.0 - Cloudy - - - - -
27/04:00am 10.7 SSW 16 22 1023.8 - 0.0 - Cloudy - - - - -
27/03:30am 10.9 SSW 15 22 1023.6 - 0.0 - Partly cloudy - - - - -
27/03:00am 10.7 SSW 16 24 1023.5 - 0.0 - Partly cloudy - - - - -
27/02:30am 11.1 SW 16 23 1023.5 - 0.0 - Cloudy - - - - -
27/02:00am 11.0 SSW 17 23 1023.4 - 0.0 - Cloudy - - - - -
27/01:49am 11.2 SSW 16 26 1023.3 - 0.0 - Cloudy - - - - -
27/01:30am 11.1 SSW 19 27 1023.4 - 0.0 - Partly cloudy - - - - -
27/01:00am 11.0 SSW 18 24 1023.5 - 0.0 - Partly cloudy - - - - -
27/12:30am 11.0 SSW 17 22 1023.7 - 0.0 - Partly cloudy - - - - -
27/12:01am 10.9 SSW 19 29 1023.7 - 0.0 - Partly cloudy - - - - -
27/12:00am 11.0 SSW 20 29 1023.7 - 0.0 - Mostly cloudy - - - - -
 
Date/Time
EDT
Temp

°C
Wind Pressure Rain
since 9am
mm
Weather Cloud Vis
km
Sea
Height
m
Swell
Dir
 
Speed
knots
Gust
knots
hPa Trend Height
m
Period
s
Dir
26/11:36pm 11.1 SSW 19 29 1023.7 - 0.0 - Partly cloudy - - - - -
26/11:30pm 11.2 SSW 18 27 1023.6 - 0.0 - Partly cloudy - - - - -
26/11:13pm 11.1 SSW 19 29 1023.6 - 0.0 - Partly cloudy - - - - -
26/11:00pm 11.1 SSW 20 26 1023.6 - 0.0 - Partly cloudy - - - - -
26/10:32pm 11.5 SSW 17 27 1023.5 - 0.0 - Partly cloudy - - - - -
26/10:30pm 11.5 SSW 17 25 1023.5 - 0.0 - Partly cloudy - - - - -
26/10:00pm 11.3 SSW 17 26 1023.4 - 0.0 - Partly cloudy - - - - -
26/09:30pm 11.3 SSW 20 25 1023.0 - 0.0 - Partly cloudy - - - - -
26/09:00pm 11.2 SSW 19 25 1022.8 - 0.0 - Mostly cloudy - - - - -
26/08:30pm 11.3 SW 20 28 1022.6 - 0.0 - Partly cloudy - - - - -
26/08:00pm 11.8 SW 20 29 1022.5 - 0.0 - Cloudy - - - - -
26/07:48pm 11.7 SSW 19 29 1022.4 - 0.0 - Partly cloudy - - - - -
26/07:30pm 11.6 SSW 20 27 1022.0 - 0.0 - Partly cloudy - - - - -
26/07:00pm 12.6 SW 21 27 1021.8 - 0.0 - Partly cloudy - - - - -
26/06:44pm 12.2 SW 21 31 1021.7 - 0.0 - Partly cloudy - - - - -
26/06:30pm 11.9 SW 23 30 1021.5 - 0.0 - Cloudy - - - - -
26/06:21pm 12.0 SW 21 31 1021.4 - 0.0 - Partly cloudy - - - - -
26/06:00pm 12.0 SW 23 28 1021.2 - 0.0 - Cloudy - - - - -
26/05:47pm 12.0 SW 21 32 1021.2 - 0.0 - Partly cloudy - - - - -
26/05:30pm 12.1 SW 22 27 1021.1 - 0.0 - Partly cloudy - - - - -
26/05:00pm 12.9 SW 24 30 1021.0 - 0.0 - Partly cloudy - - - - -
26/04:30pm 12.6 SW 20 28 1021.0 - 0.0 - Partly cloudy - - - - -
26/04:00pm 12.6 SW 24 30 1020.8 - 0.0 - Partly cloudy - - - - -
26/03:30pm 13.2 SW 23 30 1020.7 - 0.0 - Partly cloudy - - - - -
26/03:00pm 11.8 SW 25 31 1020.5 - 0.0 - Cloudy - - - - -
26/02:34pm 12.3 SW 23 33 1020.4 - 0.0 - Partly cloudy - - - - -
26/02:30pm 12.5 SW 20 28 1020.3 - 0.0 - Partly cloudy - - - - -
26/02:16pm 13.6 SW 20 30 1020.3 - 0.0 - Partly cloudy - - - - -
26/02:00pm 13.5 SW 24 29 1020.3 - 0.0 - Partly cloudy - - - - -
26/01:30pm 13.6 SW 23 29 1020.2 - 0.0 - - - - - - -
26/01:00pm 13.7 SW 25 29 1020.2 - 0.0 - Partly cloudy - - - - -
26/12:30pm 13.2 SW 23 29 1020.0 - 0.0 - Partly cloudy - - - - -
26/12:00pm 13.7 SW 24 30 1019.8 - 0.0 - Mostly clear - - - - -
26/11:30am 13.6 SW 25 30 1019.5 - 0.0 - Partly cloudy - - - - -
26/11:06am 12.7 SW 21 31 1019.3 - 0.0 - Cloudy - - - - -
26/11:00am 12.7 SW 20 29 1019.3 - 0.0 - Cloudy - - - - -
26/10:30am 13.6 SW 22 29 1019.0 - 0.0 - Partly cloudy - - - - -
26/10:00am 12.9 SW 25 31 1018.8 - 0.0 - Partly cloudy - - - - -
26/09:30am 12.8 SW 24 30 1018.7 - 0.0 - Partly cloudy - - - - -
26/09:00am 12.7 SW 27 32 1018.3 - 1.0 - Cloudy - - - - -
26/08:30am 12.8 SW 27 33 1017.9 - 1.0 - Partly cloudy - - - - -
26/08:00am 12.4 SW 25 30 1017.5 - 1.0 - Partly cloudy - - - - -
26/07:30am 12.2 SW 23 29 1017.1 - 1.0 - Partly cloudy - - - - -
26/07:00am 11.8 SW 24 31 1016.8 - 1.0 - Partly cloudy - - - - -
26/06:30am 11.8 SW 22 29 1016.6 - 1.0 - Partly cloudy - - - - -
26/06:00am 11.5 SW 23 28 1016.2 - 1.0 - Cloudy - - - - -
26/05:30am 11.5 SW 24 29 1015.9 - 1.0 - Partly cloudy - - - - -
26/05:19am 11.2 SW 25 29 1015.8 - 1.0 - Partly cloudy - - - - -
26/05:00am 11.6 SW 26 33 1015.5 - 1.0 - Partly cloudy - - - - -
26/04:59am 11.6 SW 27 33 1015.5 - 1.0 - Partly cloudy - - - - -
26/04:50am 12.3 W 19 35 1015.3 - 1.0 - Partly cloudy - - - - -
26/04:35am 12.5 W 18 26 1015.2 - 1.0 - Partly cloudy - - - - -
26/04:30am 12.5 W 17 26 1015.2 - 1.0 - Partly cloudy - - - - -
26/04:00am 12.4 W 20 30 1015.2 - 0.4 - Partly cloudy - - - - -
26/03:37am 12.4 W 19 26 1015.3 - 0.4 - Partly cloudy - - - - -
26/03:30am 12.2 W 19 26 1015.3 - 0.4 - Partly cloudy - - - - -
26/03:20am 12.5 W 19 28 1015.3 - 0.4 - Partly cloudy - - - - -
26/03:18am 12.4 W 18 28 1015.3 - 0.4 - Partly cloudy - - - - -
26/03:08am 12.3 W 21 29 1015.4 - 0.4 - Partly cloudy - - - - -
26/03:00am 12.4 W 21 30 1015.5 - 0.4 - Cloudy - - - - -
26/02:58am 12.3 W 20 30 1015.5 - 0.4 - Partly cloudy - - - - -
26/02:30am 12.3 W 20 30 1015.7 - 0.4 - Partly cloudy - - - - -
26/02:24am 12.3 W 19 29 1015.7 - 0.4 - Partly cloudy - - - - -
26/02:00am 11.9 W 20 29 1016.0 - 0.4 - Partly cloudy - - - - -
26/01:36am 12.3 W 19 31 1016.1 - 0.0 - Partly cloudy - - - - -
26/01:30am 12.4 W 17 24 1016.1 - 0.0 - Partly cloudy - - - - -
26/01:10am 12.6 W 19 29 1016.3 - 0.0 - Partly cloudy - - - - -
26/01:00am 12.9 W 19 27 1016.4 - 0.0 - Partly cloudy - - - - -
26/12:34am 12.8 W 19 29 1016.5 - 0.0 - Partly cloudy - - - - -
26/12:30am 12.6 W 17 24 1016.5 - 0.0 - Partly cloudy - - - - -
26/12:16am 12.6 W 20 32 1016.6 - 0.0 - Partly cloudy - - - - -
26/12:00am 12.9 W 18 25 1016.7 - 0.0 - Cloudy - - - - -
 
Date/Time
EDT
Temp

°C
Wind Pressure Rain
since 9am
mm
Weather Cloud Vis
km
Sea
Height
m
Swell
Dir
 
Speed
knots
Gust
knots
hPa Trend Height
m
Period
s
Dir
25/11:37pm 12.7 W 19 31 1016.9 - 0.0 - Partly cloudy - - - - -
25/11:30pm 12.7 W 18 26 1017.0 - 0.0 - Partly cloudy - - - - -
25/11:00pm 12.6 W 18 25 1017.1 - 0.0 - Partly cloudy - - - - -
25/10:30pm 12.6 W 18 27 1017.2 - 0.0 - Partly cloudy - - - - -
25/10:00pm 12.6 W 17 23 1017.4 - 0.0 - Partly cloudy - - - - -
25/09:30pm 12.3 W 18 26 1017.2 - 0.0 - Cloudy - - - - -
25/09:00pm 12.5 W 17 27 1017.2 - 0.0 - Mostly cloudy - - - - -
25/08:31pm 12.4 W 18 29 1017.0 - 0.0 - Partly cloudy - - - - -
25/08:30pm 12.4 W 18 27 1017.1 - 0.0 - Partly cloudy - - - - -
25/08:00pm 12.4 WSW 16 29 1016.8 - 0.0 - Partly cloudy - - - - -
25/07:30pm 12.3 WSW 17 31 1016.6 - 0.0 - Partly cloudy - - - - -
25/07:00pm 12.7 W 17 31 1016.2 - 0.0 - Partly cloudy - - - - -
25/06:30pm 12.9 W 16 31 1015.9 - 0.0 - Partly cloudy - - - - -
25/06:00pm 12.4 WSW 17 31 1015.9 - 0.0 - Cloudy - - - - -
25/05:30pm 11.9 W 20 32 1015.9 - 0.0 - Partly cloudy - - - - -
25/05:00pm 12.0 W 20 31 1015.7 - 0.0 - Partly cloudy - - - - -
25/04:35pm 12.6 W 18 31 1015.6 - 0.0 - Partly cloudy - - - - -
25/04:30pm 12.7 W 17 26 1015.7 - 0.0 - Partly cloudy - - - - -
25/04:00pm 12.4 WSW 16 29 1015.6 - 0.0 - Partly cloudy - - - - -
25/03:30pm 13.0 W 18 28 1015.4 - 0.0 - Partly cloudy - - - - -
25/03:02pm 12.9 WSW 15 26 1015.4 - 0.0 - Partly cloudy - - - - -
25/03:00pm 13.0 WSW 14 26 1015.4 - 0.0 - Mostly clear - - - - -
25/02:42pm 12.3 WSW 19 30 1015.3 - 0.0 - Partly cloudy - - - - -
25/02:41pm 12.5 SW 21 30 1015.3 - 0.0 - Partly cloudy - - - - -
25/02:30pm 13.0 W 19 29 1015.2 - 0.0 - Partly cloudy - - - - -

Other Formats:

Comma delimited format used in spreadsheet applications
http://www.bom.gov.au/fwo/IDV60701/IDV60701.95954.axf

JavaScript Object Notation format (JSON) in row-major order
http://www.bom.gov.au/fwo/IDV60701/IDV60701.95954.json